createdAt,value
2022-09-24T00:02:21.177Z,2.47
2022-09-24T00:04:53.572Z,1.95
2022-09-24T00:07:23.348Z,2.25
2022-09-24T00:09:55.163Z,2.78
2022-09-24T00:12:26.624Z,2.60
2022-09-24T00:14:58.194Z,2.53
2022-09-24T00:17:27.922Z,2.33
2022-09-24T00:22:29.265Z,2.47
2022-09-24T00:25:19.039Z,2.30
2022-09-24T00:27:48.293Z,2.40
2022-09-24T00:30:20.857Z,2.50
2022-09-24T00:33:12.875Z,2.22
2022-09-24T00:35:45.027Z,2.40
2022-09-24T00:38:16.165Z,2.15
2022-09-24T00:40:47.742Z,2.12
2022-09-24T00:43:36.229Z,2.50
2022-09-24T00:46:33.864Z,2.37
2022-09-24T00:49:15.559Z,2.45
2022-09-24T00:51:53.513Z,2.10
2022-09-24T00:54:27.406Z,2.30
2022-09-24T00:57:01.074Z,2.47
2022-09-24T00:59:31.687Z,2.10
2022-09-24T01:02:03.816Z,2.35
2022-09-24T01:04:33.341Z,2.15
2022-09-24T01:07:03.910Z,2.30
2022-09-24T01:09:32.789Z,2.50
2022-09-24T01:12:29.003Z,2.17
2022-09-24T01:15:12.658Z,2.55
2022-09-24T01:17:49.199Z,2.40
2022-09-24T01:20:48.534Z,2.35
2022-09-24T01:23:31.424Z,2.20
2022-09-24T01:26:19.976Z,1.95
2022-09-24T01:29:17.712Z,2.05
2022-09-24T01:31:51.526Z,2.37
2022-09-24T01:34:27.937Z,2.35
2022-09-24T01:37:00.075Z,2.03
2022-09-24T01:39:32.964Z,2.20
2022-09-24T01:42:04.018Z,2.40
2022-09-24T01:44:38.277Z,2.17
2022-09-24T01:47:10.261Z,2.22
2022-09-24T01:49:43.095Z,2.15
2022-09-24T01:52:17.706Z,2.25
2022-09-24T01:54:52.926Z,2.67
2022-09-24T01:57:27.201Z,2.80
2022-09-24T02:00:19.639Z,2.28
2022-09-24T02:03:14.091Z,2.85
2022-09-24T02:05:53.058Z,2.45
2022-09-24T02:08:25.001Z,2.62
2022-09-24T02:11:09.097Z,2.42
2022-09-24T02:13:57.216Z,2.10
2022-09-24T02:16:34.017Z,2.45
2022-09-24T02:19:06.890Z,2.35
2022-09-24T02:21:39.876Z,2.35
2022-09-24T02:24:13.037Z,2.30
2022-09-24T02:26:44.789Z,2.47
2022-09-24T02:29:14.776Z,2.50
2022-09-24T02:31:50.242Z,2.78
2022-09-24T02:34:24.030Z,2.67
2022-09-24T02:37:07.079Z,2.60
2022-09-24T02:39:36.772Z,2.40
2022-09-24T02:42:11.164Z,2.35
2022-09-24T02:44:41.584Z,2.97
2022-09-24T02:49:41.611Z,2.70
2022-09-24T02:52:14.297Z,2.50
2022-09-24T02:54:43.703Z,2.70
2022-09-24T02:57:14.225Z,2.70
2022-09-24T02:59:43.401Z,3.17
2022-09-24T03:02:15.716Z,2.85
2022-09-24T03:04:45.269Z,2.87
2022-09-24T03:07:16.403Z,2.40
2022-09-24T03:09:46.608Z,2.72
2022-09-24T03:12:19.585Z,2.67
2022-09-24T03:14:50.089Z,2.47
2022-09-24T03:17:21.370Z,2.70
2022-09-24T03:19:51.190Z,2.30
2022-09-24T03:22:22.301Z,2.53
2022-09-24T03:24:51.800Z,2.97
2022-09-24T03:27:22.305Z,3.03
2022-09-24T03:30:10.197Z,2.65
2022-09-24T03:32:42.184Z,2.40
2022-09-24T03:37:48.367Z,2.25
2022-09-24T03:40:18.447Z,2.25
2022-09-24T03:42:50.162Z,4.28
2022-09-24T03:45:20.990Z,2.45
2022-09-24T03:47:53.580Z,2.50
2022-09-24T03:50:24.237Z,2.42
2022-09-24T03:52:56.162Z,2.50
2022-09-24T03:55:25.201Z,2.25
2022-09-24T03:57:56.315Z,2.30
2022-09-24T04:00:25.604Z,2.22
2022-09-24T04:02:55.915Z,2.62
2022-09-24T04:05:26.323Z,2.67
2022-09-24T04:07:59.478Z,2.62
2022-09-24T04:10:30.028Z,3.00
2022-09-24T04:13:02.093Z,2.58
2022-09-24T04:15:33.247Z,2.95
2022-09-24T04:18:04.226Z,2.60
2022-09-24T04:20:36.043Z,2.42
2022-09-24T04:23:05.631Z,2.92
2022-09-24T04:25:35.085Z,2.85
2022-09-24T04:28:07.507Z,2.75
2022-09-24T04:30:37.417Z,2.60
2022-09-24T04:33:09.499Z,2.87
2022-09-24T04:35:39.188Z,3.12
2022-09-24T04:38:09.693Z,3.72
2022-09-24T04:40:40.744Z,3.35
2022-09-24T04:43:13.203Z,3.33
2022-09-24T04:45:45.954Z,3.35
2022-09-24T04:48:17.951Z,3.28
2022-09-24T04:50:46.700Z,3.10
2022-09-24T04:53:16.730Z,3.10
2022-09-24T04:55:47.975Z,2.95
2022-09-24T04:58:21.668Z,2.75
2022-09-24T05:00:53.955Z,3.20
2022-09-24T05:03:23.595Z,3.17
2022-09-24T05:05:56.240Z,3.20
2022-09-24T05:08:25.983Z,2.97
2022-09-24T05:10:56.681Z,3.40
2022-09-24T05:13:29.024Z,2.97
2022-09-24T05:16:01.511Z,3.55
2022-09-24T05:18:31.360Z,3.07
2022-09-24T05:21:05.205Z,3.00
2022-09-24T05:23:34.056Z,3.53
2022-09-24T05:26:22.441Z,3.53
2022-09-24T05:28:53.594Z,3.00
2022-09-24T05:31:25.250Z,3.42
2022-09-24T05:33:56.961Z,3.47
2022-09-24T05:36:29.649Z,3.20
2022-09-24T05:39:00.315Z,3.28
2022-09-24T05:41:33.047Z,3.22
2022-09-24T05:44:08.000Z,2.67
2022-09-24T05:46:39.480Z,2.92
2022-09-24T05:49:11.722Z,2.97
2022-09-24T05:51:43.925Z,3.40
2022-09-24T05:54:13.257Z,2.95
2022-09-24T05:56:47.641Z,3.17
2022-09-24T05:59:16.510Z,4.80
2022-09-24T06:01:45.889Z,5.20
2022-09-24T06:04:18.723Z,4.90
2022-09-24T06:06:48.495Z,4.30
2022-09-24T06:09:19.342Z,4.10
2022-09-24T06:11:52.945Z,4.43
2022-09-24T06:14:23.828Z,4.12
2022-09-24T06:16:53.797Z,4.37
2022-09-24T06:19:25.345Z,4.75
2022-09-24T06:21:55.361Z,4.62
2022-09-24T06:24:24.324Z,4.95
2022-09-24T06:26:53.353Z,5.12
2022-09-24T06:29:22.248Z,5.60
2022-09-24T06:31:54.339Z,5.57
2022-09-24T06:34:28.041Z,5.68
2022-09-24T06:37:02.399Z,6.35
2022-09-24T06:39:31.888Z,5.85
2022-09-24T06:42:03.858Z,5.78
2022-09-24T06:44:37.303Z,5.82
2022-09-24T06:47:07.521Z,5.75
2022-09-24T06:49:36.708Z,6.20
2022-09-24T06:52:06.569Z,5.72
2022-09-24T06:54:37.393Z,7.12
2022-09-24T06:57:08.288Z,6.70
2022-09-24T06:59:38.526Z,6.97
2022-09-24T07:02:10.572Z,6.87
2022-09-24T07:04:41.646Z,6.60
2022-09-24T07:07:29.904Z,7.30
2022-09-24T07:10:05.786Z,7.78
2022-09-24T07:12:37.595Z,7.93
2022-09-24T07:15:10.378Z,7.12
2022-09-24T07:17:39.517Z,7.90
2022-09-24T07:20:09.950Z,8.32
2022-09-24T07:22:41.544Z,9.70
2022-09-24T07:25:12.939Z,8.85
2022-09-24T07:27:43.170Z,9.20
2022-09-24T07:30:13.511Z,8.10
2022-09-24T07:32:44.502Z,9.80
2022-09-24T07:35:15.092Z,8.93
2022-09-24T07:37:45.798Z,9.60
2022-09-24T07:40:15.190Z,10.25
2022-09-24T07:42:49.679Z,11.50
2022-09-24T07:45:29.146Z,10.73
2022-09-24T07:48:03.094Z,9.95
2022-09-24T07:50:35.354Z,10.05
2022-09-24T07:53:06.881Z,10.32
2022-09-24T07:55:41.465Z,10.93
2022-09-24T07:58:15.757Z,10.63
2022-09-24T08:00:48.434Z,10.10
2022-09-24T08:03:20.715Z,10.65
2022-09-24T08:05:51.385Z,11.50
2022-09-24T08:08:22.991Z,10.50
2022-09-24T08:10:51.938Z,10.40
2022-09-24T08:13:27.756Z,11.40
2022-09-24T08:16:02.213Z,10.80
2022-09-24T08:18:33.427Z,11.30
2022-09-24T08:21:07.195Z,10.97
2022-09-24T08:23:42.303Z,11.52
2022-09-24T08:26:11.974Z,10.18
2022-09-24T08:28:44.727Z,10.80
2022-09-24T08:31:15.167Z,7.97
2022-09-24T08:33:51.468Z,7.40
2022-09-24T08:36:21.222Z,7.75
2022-09-24T08:38:55.623Z,8.02
2022-09-24T08:41:44.433Z,7.32
2022-09-24T08:44:48.062Z,8.30
2022-09-24T08:47:46.164Z,7.43
2022-09-24T08:50:24.164Z,7.15
2022-09-24T08:53:14.031Z,6.60
2022-09-24T08:58:25.507Z,5.85
2022-09-24T09:01:16.161Z,6.20
2022-09-24T09:03:57.510Z,6.78
2022-09-24T09:06:54.824Z,6.87
2022-09-24T09:09:44.952Z,7.57
2022-09-24T09:12:23.714Z,7.40
2022-09-24T09:15:04.568Z,7.30
2022-09-24T09:17:51.425Z,7.43
2022-09-24T09:20:21.800Z,7.07
2022-09-24T09:22:53.471Z,6.57
2022-09-24T09:25:30.519Z,7.12
2022-09-24T09:28:03.975Z,7.22
2022-09-24T09:30:44.163Z,9.88
2022-09-24T09:33:42.210Z,6.57
2022-09-24T09:36:33.977Z,6.65
2022-09-24T09:42:23.780Z,6.95
2022-09-24T09:44:56.694Z,5.78
2022-09-24T09:47:31.555Z,4.80
2022-09-24T09:50:09.474Z,4.97
2022-09-24T09:52:42.780Z,4.95
2022-09-24T09:55:28.880Z,4.85
2022-09-24T09:58:17.846Z,4.53
2022-09-24T10:00:50.009Z,4.72
2022-09-24T10:03:44.790Z,4.20
2022-09-24T10:06:27.504Z,4.43
2022-09-24T10:09:17.902Z,3.90
2022-09-24T10:11:48.503Z,3.65
2022-09-24T10:14:38.629Z,3.90
2022-09-24T10:17:11.233Z,3.70
2022-09-24T10:19:41.243Z,3.37
2022-09-24T10:22:22.595Z,3.53
2022-09-24T10:24:57.022Z,2.90
2022-09-24T10:27:33.612Z,2.67
2022-09-24T10:30:34.740Z,2.70
2022-09-24T10:33:06.598Z,2.12
2022-09-24T10:35:39.836Z,2.17
2022-09-24T10:38:25.717Z,3.67
2022-09-24T10:40:58.312Z,2.87
2022-09-24T10:43:28.650Z,2.20
2022-09-24T10:46:10.298Z,2.05
2022-09-24T10:48:46.751Z,2.30
2022-09-24T10:51:53.033Z,2.28
2022-09-24T10:54:28.636Z,2.28
2022-09-24T10:57:26.445Z,2.70
2022-09-24T11:00:10.028Z,2.20
2022-09-24T11:03:00.330Z,2.40
2022-09-24T11:05:39.144Z,2.22
2022-09-24T11:08:23.232Z,2.30
2022-09-24T11:11:10.174Z,2.10
2022-09-24T11:13:57.286Z,1.90
2022-09-24T11:16:49.776Z,2.62
2022-09-24T11:19:19.777Z,2.22
2022-09-24T11:22:11.087Z,2.22
2022-09-24T11:25:04.020Z,1.65
2022-09-24T11:28:06.138Z,2.20
2022-09-24T11:31:03.125Z,2.00
2022-09-24T11:33:54.184Z,2.00
2022-09-24T11:36:48.430Z,2.10
2022-09-24T11:39:29.815Z,2.37
2022-09-24T11:42:07.633Z,2.12
2022-09-24T11:44:37.120Z,2.20
2022-09-24T11:47:12.485Z,1.93
2022-09-24T11:49:57.910Z,1.55
2022-09-24T11:52:41.367Z,1.60
2022-09-24T11:55:27.129Z,2.03
2022-09-24T11:58:17.018Z,1.92
2022-09-24T12:00:59.427Z,2.22
2022-09-24T12:03:42.523Z,1.85
2022-09-24T12:06:34.155Z,2.12
2022-09-24T12:09:37.779Z,1.90
2022-09-24T12:12:21.779Z,1.90
2022-09-24T12:15:06.224Z,1.80
2022-09-24T12:17:41.592Z,1.80
2022-09-24T12:20:20.272Z,1.60
2022-09-24T12:22:50.294Z,2.30
2022-09-24T12:25:20.157Z,2.10
2022-09-24T12:27:49.022Z,1.80
2022-09-24T12:30:57.727Z,1.90
2022-09-24T12:33:33.487Z,1.70
2022-09-24T12:36:34.808Z,1.50
2022-09-24T12:39:07.685Z,1.90
2022-09-24T12:41:37.448Z,2.20
2022-09-24T12:44:10.229Z,2.22
2022-09-24T12:46:46.475Z,2.10
2022-09-24T12:49:27.664Z,1.95
2022-09-24T12:54:28.566Z,1.60
2022-09-24T12:57:07.348Z,1.60
2022-09-24T12:59:50.662Z,1.60
2022-09-24T13:02:24.041Z,1.90
2022-09-24T13:05:13.852Z,2.00
2022-09-24T13:07:42.056Z,1.75
2022-09-24T13:10:18.741Z,3.33
2022-09-24T13:12:47.684Z,1.90
2022-09-24T13:15:28.603Z,1.67
2022-09-24T13:18:03.076Z,1.80
2022-09-24T13:20:34.360Z,1.60
2022-09-24T13:23:32.273Z,2.05
2022-09-24T13:26:05.457Z,1.73
2022-09-24T13:28:52.462Z,1.75
2022-09-24T13:31:21.572Z,2.10
2022-09-24T13:33:52.821Z,1.70
2022-09-24T13:36:33.541Z,1.85
2022-09-24T13:39:30.960Z,2.03
2022-09-24T13:42:16.077Z,1.67
2022-09-24T13:44:47.889Z,1.90
2022-09-24T13:47:32.079Z,2.72
2022-09-24T13:50:23.794Z,1.77
2022-09-24T13:53:07.719Z,1.80
2022-09-24T13:55:47.279Z,1.83
2022-09-24T13:58:33.177Z,1.62
2022-09-24T14:01:25.208Z,2.00
2022-09-24T14:04:00.542Z,1.98
2022-09-24T14:06:37.694Z,1.62
2022-09-24T14:09:25.028Z,1.67
2022-09-24T14:11:56.849Z,2.00
2022-09-24T14:14:28.184Z,2.05
2022-09-24T14:17:09.877Z,2.25
2022-09-24T14:19:39.566Z,2.20
2022-09-24T14:22:15.463Z,1.80
2022-09-24T14:25:06.598Z,2.00
2022-09-24T14:27:40.159Z,2.30
2022-09-24T14:30:17.464Z,2.03
2022-09-24T14:32:45.665Z,1.85
2022-09-24T14:35:23.050Z,1.90
2022-09-24T14:37:55.150Z,2.15
2022-09-24T14:40:23.982Z,2.33
2022-09-24T14:43:00.504Z,2.08
2022-09-24T14:45:34.950Z,2.10
2022-09-24T14:48:18.388Z,2.33
2022-09-24T14:50:47.823Z,2.47
2022-09-24T14:53:34.254Z,2.20
2022-09-24T14:56:28.327Z,2.20
2022-09-24T14:59:00.700Z,2.30
2022-09-24T15:01:33.664Z,2.25
2022-09-24T15:04:08.424Z,2.20
2022-09-24T15:06:37.847Z,1.70
2022-09-24T15:09:31.592Z,2.37
2022-09-24T15:12:10.735Z,2.30
2022-09-24T15:14:39.847Z,2.25
2022-09-24T15:17:11.039Z,2.25
2022-09-24T15:19:43.189Z,2.53
2022-09-24T15:22:12.282Z,2.50
2022-09-24T15:24:40.163Z,2.47
2022-09-24T15:27:19.924Z,2.65
2022-09-24T15:29:48.179Z,2.67
2022-09-24T15:32:18.264Z,2.78
2022-09-24T15:34:47.378Z,2.67
2022-09-24T15:37:19.782Z,2.92
2022-09-24T15:39:49.304Z,2.55
2022-09-24T15:42:24.148Z,2.87
2022-09-24T15:44:54.805Z,3.37
2022-09-24T15:47:23.707Z,2.97
2022-09-24T15:49:51.887Z,2.90
2022-09-24T15:52:32.160Z,2.90
2022-09-24T15:55:02.289Z,3.33
2022-09-24T15:57:30.627Z,3.22
2022-09-24T15:59:58.839Z,3.20
2022-09-24T16:02:32.172Z,3.33
2022-09-24T16:05:04.217Z,2.78
2022-09-24T16:07:33.261Z,3.08
2022-09-24T16:10:01.765Z,2.72
2022-09-24T16:12:30.267Z,3.08
2022-09-24T16:15:00.806Z,3.15
2022-09-24T16:17:29.387Z,2.80
2022-09-24T16:19:58.578Z,2.53
2022-09-24T16:22:26.661Z,3.00
2022-09-24T16:24:54.821Z,3.12
2022-09-24T16:27:23.191Z,3.03
2022-09-24T16:29:51.942Z,3.37
2022-09-24T16:32:19.941Z,3.08
2022-09-24T16:34:48.732Z,3.35
2022-09-24T16:37:18.475Z,3.90
2022-09-24T16:39:46.460Z,3.60
2022-09-24T16:42:14.703Z,3.95
2022-09-24T16:44:43.078Z,3.83
2022-09-24T16:47:11.737Z,5.07
2022-09-24T16:49:39.847Z,4.62
2022-09-24T16:52:07.678Z,4.97
2022-09-24T16:54:36.979Z,4.78
2022-09-24T16:57:09.014Z,4.75
2022-09-24T16:59:37.884Z,4.37
2022-09-24T17:02:05.961Z,4.32
2022-09-24T17:04:34.591Z,3.87
2022-09-24T17:07:03.818Z,4.10
2022-09-24T17:09:50.318Z,4.03
2022-09-24T17:12:19.411Z,4.50
2022-09-24T17:14:46.981Z,4.60
2022-09-24T17:17:15.034Z,4.70
2022-09-24T17:19:45.455Z,5.07
2022-09-24T17:22:13.173Z,5.53
2022-09-24T17:24:41.271Z,4.50
2022-09-24T17:27:09.477Z,4.07
2022-09-24T17:29:38.151Z,4.43
2022-09-24T17:32:06.446Z,4.55
2022-09-24T17:34:35.993Z,4.30
2022-09-24T17:37:04.194Z,5.15
2022-09-24T17:39:32.620Z,5.50
2022-09-24T17:42:02.611Z,5.30
2022-09-24T17:44:30.826Z,6.25
2022-09-24T17:47:00.799Z,6.15
2022-09-24T17:49:29.517Z,8.45
2022-09-24T17:52:01.564Z,8.73
2022-09-24T17:54:29.619Z,8.38
2022-09-24T17:56:58.422Z,8.45
2022-09-24T17:59:27.151Z,8.45
2022-09-24T18:01:56.275Z,8.52
2022-09-24T18:04:27.442Z,8.85
2022-09-24T18:06:55.614Z,7.97
2022-09-24T18:09:24.203Z,8.15
2022-09-24T18:11:52.828Z,8.82
2022-09-24T18:14:22.875Z,8.50
2022-09-24T18:16:51.787Z,9.40
2022-09-24T18:19:20.520Z,8.02
2022-09-24T18:21:51.115Z,8.55
2022-09-24T18:24:20.195Z,7.72
2022-09-24T18:26:51.499Z,7.40
2022-09-24T18:29:21.189Z,7.00
2022-09-24T18:31:51.788Z,8.10
2022-09-24T18:34:20.281Z,8.80
2022-09-24T18:36:48.285Z,7.62
2022-09-24T18:39:21.931Z,7.75
2022-09-24T18:41:53.319Z,8.52
2022-09-24T18:44:22.121Z,9.00
2022-09-24T18:46:51.173Z,8.23
2022-09-24T18:49:20.036Z,8.48
2022-09-24T18:51:49.142Z,7.15
2022-09-24T18:54:18.404Z,7.43
2022-09-24T18:56:48.288Z,10.05
2022-09-24T18:59:20.056Z,10.43
2022-09-24T19:01:50.841Z,11.05
2022-09-24T19:04:19.591Z,11.77
2022-09-24T19:06:48.675Z,11.43
2022-09-24T19:09:18.958Z,11.48
2022-09-24T19:11:48.884Z,10.25
2022-09-24T19:14:18.537Z,10.57
2022-09-24T19:16:47.441Z,10.50
2022-09-24T19:19:16.373Z,10.05
2022-09-24T19:21:45.738Z,10.98
2022-09-24T19:24:13.295Z,10.02
2022-09-24T19:26:41.200Z,10.43
2022-09-24T19:29:10.086Z,10.50
2022-09-24T19:31:41.835Z,10.45
2022-09-24T19:34:13.004Z,10.80
2022-09-24T19:36:45.030Z,10.20
2022-09-24T19:39:16.369Z,10.63
2022-09-24T19:41:45.093Z,10.43
2022-09-24T19:44:16.772Z,10.00
2022-09-24T19:46:45.543Z,9.43
2022-09-24T19:49:15.206Z,9.30
2022-09-24T19:51:43.631Z,10.73
2022-09-24T19:54:12.923Z,9.93
2022-09-24T19:56:41.606Z,10.98
2022-09-24T19:59:10.007Z,10.55
2022-09-24T20:01:38.362Z,10.23
2022-09-24T20:04:07.685Z,9.15
2022-09-24T20:06:37.115Z,10.25
2022-09-24T20:09:05.526Z,11.12
2022-09-24T20:11:35.490Z,9.65
2022-09-24T20:14:06.263Z,8.15
2022-09-24T20:16:35.484Z,10.18
2022-09-24T20:19:05.284Z,8.20
2022-09-24T20:21:39.279Z,9.05
2022-09-24T20:24:12.699Z,9.73
2022-09-24T20:27:01.935Z,9.50
2022-09-24T20:29:31.610Z,9.70
2022-09-24T20:32:01.428Z,9.75
2022-09-24T20:34:34.254Z,9.68
2022-09-24T20:37:06.156Z,9.90
2022-09-24T20:39:35.122Z,9.75
2022-09-24T20:42:06.202Z,9.98
2022-09-24T20:44:35.541Z,10.40
2022-09-24T20:47:04.229Z,8.48
2022-09-24T20:49:33.370Z,9.20
2022-09-24T20:52:03.327Z,9.18
2022-09-24T20:54:33.714Z,9.93
2022-09-24T20:57:01.984Z,10.32
2022-09-24T20:59:30.928Z,10.23
2022-09-24T21:02:04.251Z,10.27
2022-09-24T21:04:36.847Z,10.45
2022-09-24T21:07:05.707Z,9.25
2022-09-24T21:09:34.032Z,9.88
2022-09-24T21:12:03.723Z,9.95
2022-09-24T21:14:35.561Z,9.20
2022-09-24T21:17:03.672Z,9.23
2022-09-24T21:19:35.741Z,10.27
2022-09-24T21:22:03.513Z,9.07
2022-09-24T21:24:32.130Z,9.15
2022-09-24T21:27:00.160Z,8.52
2022-09-24T21:29:27.856Z,9.18
2022-09-24T21:31:55.943Z,8.80
2022-09-24T21:34:24.263Z,9.10
2022-09-24T21:36:53.242Z,8.65
2022-09-24T21:39:24.338Z,8.15
2022-09-24T21:41:59.564Z,7.60
2022-09-24T21:44:34.194Z,8.80
2022-09-24T21:47:01.927Z,8.43
2022-09-24T21:49:33.691Z,8.45
2022-09-24T21:52:05.044Z,8.15
2022-09-24T21:54:34.096Z,7.32
2022-09-24T21:57:02.425Z,8.27
2022-09-24T21:59:50.159Z,8.73
2022-09-24T22:02:20.340Z,7.80
2022-09-24T22:04:51.000Z,8.35
2022-09-24T22:07:19.484Z,7.90
2022-09-24T22:09:50.192Z,8.43
2022-09-24T22:14:53.278Z,6.25
2022-09-24T22:17:26.401Z,6.65
2022-09-24T22:19:58.110Z,7.03
2022-09-24T22:22:28.511Z,7.20
2022-09-24T22:25:01.113Z,7.60
2022-09-24T22:27:32.211Z,7.95
2022-09-24T22:30:03.239Z,7.75
2022-09-24T22:32:38.192Z,7.20
2022-09-24T22:35:29.928Z,7.22
2022-09-24T22:38:01.042Z,7.37
2022-09-24T22:40:31.045Z,7.93
2022-09-24T22:43:05.444Z,7.78
2022-09-24T22:45:35.810Z,7.00
2022-09-24T22:48:07.943Z,7.03
2022-09-24T22:50:39.123Z,6.87
2022-09-24T22:53:10.557Z,6.65
2022-09-24T22:55:40.141Z,7.20
2022-09-24T22:58:13.953Z,8.05
2022-09-24T23:00:44.419Z,7.15
2022-09-24T23:03:15.015Z,7.32
2022-09-24T23:05:46.322Z,6.00
2022-09-24T23:08:18.169Z,6.35
2022-09-24T23:10:48.069Z,5.90
2022-09-24T23:13:21.082Z,5.80
2022-09-24T23:15:55.376Z,5.82
2022-09-24T23:18:27.961Z,5.03
2022-09-24T23:20:58.315Z,5.18
2022-09-24T23:23:28.685Z,5.85
2022-09-24T23:26:14.250Z,6.50
2022-09-24T23:28:53.608Z,6.50
2022-09-24T23:31:29.736Z,6.40
2022-09-24T23:34:02.150Z,6.93
2022-09-24T23:36:34.194Z,6.65
2022-09-24T23:39:06.407Z,6.47
2022-09-24T23:41:37.789Z,7.12
2022-09-24T23:44:11.944Z,6.50
2022-09-24T23:46:42.106Z,6.07
2022-09-24T23:51:44.817Z,6.78
2022-09-24T23:54:16.471Z,6.03
2022-09-24T23:56:46.617Z,6.22
2022-09-24T23:59:18.913Z,6.82
